Time;durP1;ratioP1;P1;durP2;ratioP2;P2;SDS_P1;SDS_P2;PMS_P1;PMS_P2;Temp;Humidity;BMP_temperature;BMP_pressure;BME280_temperature;BME280_humidity;BME280_pressure;Samples;Min_cycle;Max_cycle;Signal;HPM_P1;HPM_P2
2022/06/20 00:02:19;;;;;;;10.40;5.70;;;;;;;17.49;86.33;99090.31;5013533;28;20559;-86
2022/06/20 00:04:47;;;;;;;9.53;6.60;;;;;;;18.62;89.40;99320.44;5013364;28;20187;-85
2022/06/20 00:07:13;;;;;;;8.40;6.30;;;;;;;18.46;92.16;99327.06;5013586;28;20555;-86
2022/06/20 00:09:38;;;;;;;10.63;6.50;;;;;;;18.22;94.87;99327.66;5013552;28;20643;-86
2022/06/20 00:12:04;;;;;;;9.03;7.30;;;;;;;17.37;96.80;99204.44;5012944;28;20177;-86
2022/06/20 00:14:30;;;;;;;12.03;6.90;;;;;;;17.57;99.52;99297.78;5012961;28;20159;-86
2022/06/20 00:16:56;;;;;;;10.17;7.30;;;;;;;16.37;100.00;99116.00;5012881;28;20663;-86
2022/06/20 00:19:21;;;;;;;10.70;7.60;;;;;;;17.42;100.00;99279.59;5013154;28;20174;-85
2022/06/20 00:21:46;;;;;;;10.27;7.50;;;;;;;16.26;100.00;99107.31;5011714;28;20690;-85
2022/06/20 00:24:12;;;;;;;12.23;7.83;;;;;;;17.43;100.00;99309.47;5013000;28;20174;-85
2022/06/20 00:26:37;;;;;;;10.97;7.63;;;;;;;15.64;100.00;99042.41;5012622;28;20163;-85
2022/06/20 00:29:05;;;;;;;12.10;7.77;;;;;;;17.46;100.00;99302.72;5012588;28;20555;-84
2022/06/20 00:31:30;;;;;;;10.60;8.57;;;;;;;17.38;100.00;99304.28;5012630;28;20302;-85
2022/06/20 00:33:56;;;;;;;11.57;8.07;;;;;;;15.31;100.00;98961.88;5012908;28;20229;-87
2022/06/20 00:36:21;;;;;;;11.40;8.13;;;;;;;15.58;100.00;98991.25;5012433;28;20617;-85
2022/06/20 00:38:51;;;;;;;11.17;8.30;;;;;;;16.64;100.00;99129.25;5015994;28;20535;-84
2022/06/20 00:41:22;;;;;;;12.70;8.23;;;;;;;17.84;100.00;99302.41;5023631;28;20615;-85
2022/06/20 00:43:50;;;;;;;9.40;7.90;;;;;;;17.69;100.00;99301.34;5013543;28;20221;-84
2022/06/20 00:46:40;;;;;;;10.40;8.17;;;;;;;16.16;100.00;99045.00;5012679;28;20262;-85
2022/06/20 00:49:18;;;;;;;11.93;8.20;;;;;;;17.75;100.00;99299.69;5012175;28;20683;-85
2022/06/20 00:51:50;;;;;;;14.20;8.30;;;;;;;17.77;100.00;99305.72;5012355;28;20253;-85
2022/06/20 00:54:32;;;;;;;9.90;7.77;;;;;;;17.58;100.00;99296.91;5011020;28;20190;-86
2022/06/20 00:57:07;;;;;;;12.47;8.43;;;;;;;17.49;100.00;99294.22;5012267;28;20209;-85
2022/06/20 00:59:38;;;;;;;10.10;7.67;;;;;;;17.80;100.00;99298.09;5013230;28;20213;-86
2022/06/20 01:02:06;;;;;;;11.60;7.97;;;;;;;17.20;100.00;99182.88;5013013;28;20167;-86
2022/06/20 01:04:47;;;;;;;10.37;7.80;;;;;;;17.39;100.00;99287.22;5012906;28;20159;-86
2022/06/20 01:07:19;;;;;;;13.67;8.47;;;;;;;17.27;100.00;99292.16;5012403;28;20170;-86
2022/06/20 01:09:49;;;;;;;9.03;7.27;;;;;;;17.58;100.00;99291.78;5012456;28;20217;-85
2022/06/20 01:12:20;;;;;;;10.60;6.90;;;;;;;16.79;100.00;99177.16;5013058;28;20225;-87
2022/06/20 01:14:47;;;;;;;10.23;6.93;;;;;;;17.66;100.00;99300.47;5012590;28;20661;-86
2022/06/20 01:17:15;;;;;;;9.50;6.80;;;;;;;17.65;100.00;99293.63;5011897;28;20191;-86
2022/06/20 01:19:54;;;;;;;8.83;7.10;;;;;;;17.57;100.00;99290.09;5010870;28;20738;-86
2022/06/20 01:22:38;;;;;;;10.30;7.23;;;;;;;17.26;100.00;99281.06;5010798;28;20169;-85
2022/06/20 01:25:42;;;;;;;9.87;7.00;;;;;;;17.09;100.00;99280.81;5012519;28;20528;-86
2022/06/20 01:28:12;;;;;;;11.23;7.10;;;;;;;16.86;100.00;99253.16;5012452;28;20233;-85
2022/06/20 01:30:41;;;;;;;12.37;7.17;;;;;;;15.80;100.00;99035.03;5012218;28;20643;-87
2022/06/20 01:33:07;;;;;;;10.97;6.77;;;;;;;16.87;100.00;99207.13;5011990;28;20167;-87
2022/06/20 01:38:19;;;;;;;8.67;7.10;;;;;;;16.33;100.00;99217.28;5013042;28;20178;-86
2022/06/20 01:43:33;;;;;;;11.03;7.40;;;;;;;15.40;100.00;99047.03;5013365;28;20262;-86
2022/06/20 01:46:00;;;;;;;12.30;7.63;;;;;;;16.65;100.00;99276.66;5013335;28;20171;-86
2022/06/20 01:48:32;;;;;;;9.87;7.10;;;;;;;16.31;100.00;99233.44;5013831;28;20166;-86
2022/06/20 01:50:58;;;;;;;8.73;7.20;;;;;;;15.88;100.00;99144.94;5013849;28;20170;-85
2022/06/20 01:53:33;;;;;;;10.53;7.33;;;;;;;15.65;100.00;99124.09;4993151;28;20218;-85
2022/06/20 01:55:58;;;;;;;8.70;6.97;;;;;;;15.41;100.00;99098.06;5005822;28;20653;-85
2022/06/20 01:58:33;;;;;;;10.00;6.60;;;;;;;15.59;100.00;99126.53;5012577;28;20258;-84
2022/06/20 02:01:00;;;;;;;9.87;6.87;;;;;;;16.12;100.00;99274.78;5013582;28;20162;-85
2022/06/20 02:03:26;;;;;;;8.73;6.50;;;;;;;16.20;100.00;99279.22;5011898;28;20182;-85
2022/06/20 02:05:55;;;;;;;6.80;5.87;;;;;;;15.47;100.00;99149.25;5013356;28;20173;-85
2022/06/20 02:08:22;;;;;;;8.73;6.93;;;;;;;15.85;100.00;99229.97;5012795;28;20159;-84
2022/06/20 02:10:56;;;;;;;11.97;6.60;;;;;;;15.58;100.00;99170.72;5012579;28;20167;-85
2022/06/20 02:13:24;;;;;;;9.50;6.90;;;;;;;15.78;100.00;99146.47;5013068;28;20171;-85
2022/06/20 02:15:53;;;;;;;11.23;6.37;;;;;;;16.58;100.00;99263.75;5013073;28;20225;-85
2022/06/20 02:18:20;;;;;;;10.73;6.77;;;;;;;16.63;100.00;99268.09;5012353;28;20246;-85
2022/06/20 02:20:49;;;;;;;8.07;6.30;;;;;;;16.45;100.00;99267.75;5012565;28;20237;-85
2022/06/20 02:23:36;;;;;;;8.27;6.63;;;;;;;16.41;100.00;99265.97;5014371;28;21882;-85
2022/06/20 02:26:05;;;;;;;9.47;6.47;;;;;;;15.98;100.00;99258.31;5026272;28;20182;-85
2022/06/20 02:28:47;;;;;;;7.90;6.47;;;;;;;16.03;100.00;99249.06;5014509;28;20174;-85
2022/06/20 02:31:13;;;;;;;10.00;6.60;;;;;;;15.22;100.00;99093.44;5012785;28;20167;-86
2022/06/20 02:33:38;;;;;;;8.43;6.73;;;;;;;15.51;100.00;99158.69;5013429;28;20171;-86
2022/06/20 02:36:06;;;;;;;9.97;6.73;;;;;;;16.12;100.00;99262.88;5012429;28;20203;-86
2022/06/20 02:38:32;;;;;;;9.03;6.37;;;;;;;15.99;100.00;99260.91;5012330;28;20180;-85
2022/06/20 02:40:58;;;;;;;10.13;6.57;;;;;;;16.09;100.00;99241.53;5013243;28;20222;-86
2022/06/20 02:43:31;;;;;;;10.40;6.83;;;;;;;15.18;100.00;99168.16;5013675;28;20198;-86
2022/06/20 02:45:58;;;;;;;8.73;6.93;;;;;;;15.75;100.00;99255.28;5013421;28;20170;-82
2022/06/20 02:48:27;;;;;;;9.10;6.90;;;;;;;15.32;100.00;99200.78;5014332;28;20171;-87
2022/06/20 02:51:00;;;;;;;8.47;6.70;;;;;;;15.82;100.00;99262.28;5016790;28;20258;-85
2022/06/20 02:53:56;;;;;;;8.23;6.63;;;;;;;15.63;100.00;99250.78;5016974;28;20635;-85
2022/06/20 02:56:24;;;;;;;9.13;7.00;;;;;;;15.56;100.00;99255.75;5015205;28;20199;-86
2022/06/20 02:59:03;;;;;;;10.70;6.97;;;;;;;14.29;100.00;99094.72;5013928;28;20675;-86
2022/06/20 03:01:39;;;;;;;8.77;6.77;;;;;;;14.38;100.00;99118.75;5015364;28;20201;-85
2022/06/20 03:04:07;;;;;;;12.60;6.70;;;;;;;14.40;100.00;99084.00;5015372;28;20173;-84
2022/06/20 03:06:36;;;;;;;12.40;7.10;;;;;;;14.91;100.00;99183.72;5015034;28;20165;-85
2022/06/20 03:09:02;;;;;;;10.70;7.23;;;;;;;15.46;100.00;99257.25;5015002;28;20179;-84
2022/06/20 03:11:31;;;;;;;9.80;6.90;;;;;;;15.30;100.00;99261.09;5016924;28;20181;-85
2022/06/20 03:14:00;;;;;;;10.43;7.23;;;;;;;15.14;100.00;99237.75;5016590;28;20197;-85
2022/06/20 03:16:27;;;;;;;7.60;6.83;;;;;;;15.16;100.00;99257.34;5015686;28;20263;-85
2022/06/20 03:18:57;;;;;;;9.20;6.60;;;;;;;14.14;100.00;99034.13;5016537;28;20583;-86
2022/06/20 03:21:25;;;;;;;11.67;7.40;;;;;;;15.16;100.00;99192.78;5018326;28;20225;-86
2022/06/20 03:23:52;;;;;;;11.70;6.70;;;;;;;15.07;100.00;99177.25;5019656;28;20167;-86
2022/06/20 03:26:23;;;;;;;11.17;7.77;;;;;;;14.27;100.00;99015.75;5020094;28;20186;-87
2022/06/20 03:28:49;;;;;;;11.97;7.33;;;;;;;15.18;100.00;99163.06;5018774;28;20175;-86
2022/06/20 03:31:15;;;;;;;10.97;6.77;;;;;;;14.50;99.28;98986.56;5016689;28;20181;-84
2022/06/20 03:33:41;;;;;;;11.87;6.90;;;;;;;16.26;97.85;99252.91;5016491;28;20174;-85
2022/06/20 03:36:13;;;;;;;9.10;6.43;;;;;;;16.22;96.51;99258.78;5016671;28;20230;-85
2022/06/20 03:38:41;;;;;;;11.53;6.70;;;;;;;14.51;95.01;98962.84;5015927;28;20159;-86
2022/06/20 03:41:09;;;;;;;10.10;6.73;;;;;;;15.68;93.68;99126.72;5016242;28;20210;-85
2022/06/20 03:43:36;;;;;;;9.40;6.13;;;;;;;13.99;93.64;98881.03;5016516;28;20189;-85
2022/06/20 03:46:10;;;;;;;8.77;6.30;;;;;;;16.33;93.38;99258.16;5016687;28;20164;-85
2022/06/20 03:48:41;;;;;;;7.33;6.30;;;;;;;15.08;93.33;99048.97;5015188;28;20166;-85
2022/06/20 03:51:16;;;;;;;8.13;6.10;;;;;;;14.46;92.75;98915.19;5017941;28;20246;-85
2022/06/20 03:53:50;;;;;;;11.87;6.40;;;;;;;16.60;90.94;99201.59;5017176;28;20171;-85
2022/06/20 03:56:27;;;;;;;10.83;6.43;;;;;;;16.69;90.93;99216.22;5016464;28;20194;-87
2022/06/20 03:59:03;;;;;;;7.80;5.70;;;;;;;15.78;90.28;99051.16;5017091;28;20225;-87
2022/06/20 04:01:52;;;;;;;9.40;6.07;;;;;;;17.04;91.00;99256.00;5016962;28;20174;-87
2022/06/20 04:04:25;;;;;;;9.27;6.30;;;;;;;17.15;90.24;99256.16;5014213;28;20225;-88
2022/06/20 04:07:03;;;;;;;11.90;6.90;;;;;;;15.97;89.62;99057.44;5014549;28;20175;-88
2022/06/20 04:12:48;;;;;;;12.23;6.77;;;;;;;17.08;88.31;99202.34;4996381;28;20284;-85
2022/06/20 04:15:20;;;;;;;8.23;6.37;;;;;;;17.24;87.73;99198.31;5020591;28;20796;-87
2022/06/20 04:21:01;;;;;;;10.23;6.23;;;;;;;17.87;85.75;99259.78;5013505;28;20205;-87
2022/06/20 04:23:49;;;;;;;7.63;5.93;;;;;;;17.34;87.20;99189.91;5016797;28;20254;-87
2022/06/20 04:26:27;;;;;;;8.93;6.20;;;;;;;17.84;85.89;99241.78;5012256;28;20913;-86
2022/06/20 04:29:16;;;;;;;9.87;6.23;;;;;;;17.66;88.12;99260.34;5006505;28;20827;-86
2022/06/20 04:31:58;;;;;;;8.57;5.90;;;;;;;17.00;87.99;99132.31;5016030;28;20257;-86
2022/06/20 04:34:35;;;;;;;10.27;6.70;;;;;;;18.06;87.24;99258.28;5011469;28;20765;-87
2022/06/20 04:37:09;;;;;;;10.00;6.60;;;;;;;17.55;89.98;99251.66;5016630;28;20202;-86
2022/06/20 04:39:57;;;;;;;10.90;6.87;;;;;;;17.34;91.92;99247.91;5018300;28;20229;-86
2022/06/20 04:42:41;;;;;;;9.27;7.00;;;;;;;17.48;91.92;99247.28;5009212;28;20201;-87
2022/06/20 04:45:18;;;;;;;10.73;7.50;;;;;;;17.30;90.83;99177.94;5012592;28;20190;-87
2022/06/20 04:48:10;;;;;;;10.83;7.57;;;;;;;18.26;88.69;99249.97;5012280;28;20257;-87
2022/06/20 04:50:36;;;;;;;11.70;7.23;;;;;;;16.75;86.82;98940.25;5012112;28;20182;-87
2022/06/20 04:53:06;;;;;;;13.87;7.07;;;;;;;18.56;86.31;99248.59;5011043;28;20194;-86
2022/06/20 04:55:33;;;;;;;10.60;7.37;;;;;;;18.63;85.51;99245.22;5013648;28;20260;-86
2022/06/20 04:58:02;;;;;;;10.80;7.63;;;;;;;18.23;83.15;99123.50;5010536;28;20179;-86
2022/06/20 05:00:41;;;;;;;8.07;7.27;;;;;;;19.35;81.64;99257.75;4992293;28;20749;-86
2022/06/20 05:03:08;;;;;;;10.87;7.20;;;;;;;19.54;78.00;99251.91;5005287;28;20218;-87
2022/06/20 05:05:45;;;;;;;8.20;7.40;;;;;;;19.50;79.32;99254.47;4992705;28;20731;-86
2022/06/20 05:08:16;;;;;;;8.77;7.50;;;;;;;19.17;78.72;99152.44;4991656;28;20187;-86
2022/06/20 05:10:57;;;;;;;10.23;7.50;;;;;;;19.67;78.39;99255.41;4992974;28;20187;-87
2022/06/20 05:13:33;;;;;;;10.70;6.90;;;;;;;19.56;77.85;99264.78;5003535;28;20287;-86
2022/06/20 05:15:59;;;;;;;8.87;6.40;;;;;;;19.80;76.25;99236.66;5013816;28;20216;-86
2022/06/20 05:18:36;;;;;;;10.37;6.43;;;;;;;19.76;75.05;99247.75;5013621;28;20270;-87
2022/06/20 05:21:11;;;;;;;6.70;6.00;;;;;;;19.65;73.50;99186.06;5013101;28;20244;-86
2022/06/20 05:23:44;;;;;;;7.77;5.90;;;;;;;20.13;72.17;99220.47;5012352;28;20251;-88
2022/06/20 05:26:24;;;;;;;6.43;5.63;;;;;;;20.41;68.88;99227.41;5012293;28;20179;-87
2022/06/20 05:28:53;;;;;;;5.73;5.00;;;;;;;19.03;66.19;98979.56;5009537;28;20591;-86
2022/06/20 05:31:35;;;;;;;6.17;5.10;;;;;;;17.51;65.27;98707.25;5007907;28;20209;-88
2022/06/20 05:34:13;;;;;;;7.47;5.37;;;;;;;18.57;65.12;98947.78;5008822;28;20277;-87
2022/06/20 05:36:49;;;;;;;6.70;5.10;;;;;;;20.18;66.58;99263.34;4989617;28;20260;-85
2022/06/20 05:39:32;;;;;;;5.43;4.80;;;;;;;20.12;66.02;99193.03;4989898;28;20234;-85
2022/06/20 05:41:58;;;;;;;8.03;5.10;;;;;;;20.66;64.82;99266.91;4996861;28;20644;-85
2022/06/20 05:44:24;;;;;;;5.93;5.10;;;;;;;20.72;63.63;99221.44;5010554;28;20245;-87
2022/06/20 05:46:59;;;;;;;6.93;5.47;;;;;;;21.20;63.90;99258.34;5009839;28;20819;-88
2022/06/20 05:49:30;;;;;;;6.73;5.50;;;;;;;21.02;62.45;99131.34;5008245;28;20197;-87
2022/06/20 05:51:58;;;;;;;11.80;5.90;;;;;;;21.94;61.19;99253.03;5007375;28;20182;-87
2022/06/20 05:54:28;;;;;;;6.50;5.57;;;;;;;20.84;62.41;99085.06;5009211;28;20195;-86
2022/06/20 05:56:59;;;;;;;7.53;5.67;;;;;;;22.03;62.92;99258.16;4991914;28;20211;-85
2022/06/20 05:59:28;;;;;;;8.83;5.97;;;;;;;21.60;63.92;99252.25;4998351;28;20234;-87
2022/06/20 06:01:58;;;;;;;8.63;5.40;;;;;;;21.67;63.93;99252.22;5011421;28;20182;-87
2022/06/20 06:04:36;;;;;;;8.00;5.67;;;;;;;20.94;62.97;99055.88;5012411;28;20187;-87
2022/06/20 06:07:09;;;;;;;7.77;5.27;;;;;;;22.05;60.99;99236.66;5012719;28;20182;-87
2022/06/20 06:09:51;;;;;;;11.80;5.40;;;;;;;22.56;59.93;99245.81;5011660;28;20267;-86
2022/06/20 06:12:33;;;;;;;8.70;5.70;;;;;;;22.68;60.02;99250.06;4999181;28;20264;-87
2022/06/20 06:15:17;;;;;;;7.60;6.07;;;;;;;21.82;59.68;99109.56;5012247;28;20890;-87
2022/06/20 06:17:58;;;;;;;9.27;7.93;;;;;;;22.55;59.69;99189.88;5012322;28;20244;-86
2022/06/20 06:20:26;;;;;;;7.87;5.20;;;;;;;21.53;56.80;99024.72;5010833;28;20187;-86
2022/06/20 06:22:56;;;;;;;6.33;4.90;;;;;;;22.17;56.34;99148.91;5012944;28;20237;-88
2022/06/20 06:25:31;;;;;;;6.07;4.47;;;;;;;22.24;55.79;99242.56;5014559;28;20902;-86
2022/06/20 06:28:02;;;;;;;6.67;4.77;;;;;;;21.71;57.22;99199.81;5016641;28;20189;-86
2022/06/20 06:30:32;;;;;;;5.47;4.73;;;;;;;22.30;57.15;99243.38;5021456;28;20179;-84
2022/06/20 06:33:05;;;;;;;7.00;4.93;;;;;;;22.24;57.43;99214.19;5032116;28;20191;-84
2022/06/20 06:35:30;;;;;;;6.87;4.73;;;;;;;22.37;58.33;99231.31;5033780;28;20563;-85
2022/06/20 06:38:05;;;;;;;5.93;5.10;;;;;;;22.33;57.61;99175.47;5031894;28;20189;-87
2022/06/20 06:40:33;;;;;;;6.23;5.10;;;;;;;23.19;55.92;99230.66;5008736;28;20235;-86
2022/06/20 06:43:01;;;;;;;9.63;5.50;;;;;;;23.49;55.50;99183.88;5020031;28;20190;-85
2022/06/20 06:45:33;;;;;;;7.70;4.87;;;;;;;21.68;56.51;98973.09;5021636;28;20217;-85
2022/06/20 06:48:06;;;;;;;5.40;4.90;;;;;;;23.27;56.03;99231.44;5021056;28;20189;-85
2022/06/20 06:50:45;;;;;;;10.47;5.20;;;;;;;20.68;54.68;98764.41;5014123;28;20194;-85
2022/06/20 06:53:27;;;;;;;8.50;5.10;;;;;;;24.21;53.20;99220.91;5002533;28;20253;-85
2022/06/20 06:56:24;;;;;;;7.20;6.07;;;;;;;24.49;51.86;99211.00;5023193;28;20266;-84
2022/06/20 06:59:05;;;;;;;6.80;5.07;;;;;;;24.29;49.68;99218.19;5005872;28;20209;-85
2022/06/20 07:01:40;;;;;;;6.73;4.70;;;;;;;23.25;51.07;99042.91;4988907;28;20194;-85
2022/06/20 07:04:28;;;;;;;7.60;4.83;;;;;;;24.64;50.03;99208.16;5018401;28;20204;-84
2022/06/20 07:07:32;;;;;;;7.20;5.20;;;;;;;22.34;51.42;98872.78;5021514;28;20217;-88
2022/06/20 07:09:58;;;;;;;6.03;4.87;;;;;;;23.03;50.47;98883.09;4949731;29;20677;-86
2022/06/20 07:12:51;;;;;;;5.73;5.13;;;;;;;25.28;49.40;99201.91;4927256;29;20217;-85
2022/06/20 07:15:20;;;;;;;5.97;5.20;;;;;;;23.98;49.45;98991.00;4931912;29;20201;-85
2022/06/20 07:17:56;;;;;;;7.33;5.07;;;;;;;24.56;49.97;99119.41;4948349;29;20241;-84
2022/06/20 07:20:26;;;;;;;10.37;5.20;;;;;;;23.96;50.71;99065.16;4945685;29;20192;-86
2022/06/20 07:22:53;;;;;;;8.17;5.07;;;;;;;24.81;49.55;99141.44;4946648;29;20201;-86
2022/06/20 07:25:35;;;;;;;6.57;4.93;;;;;;;23.88;50.64;99079.94;4949093;29;20193;-87
2022/06/20 07:28:15;;;;;;;7.57;5.23;;;;;;;25.20;49.45;99186.50;4944686;29;20245;-86
2022/06/20 07:30:47;;;;;;;8.63;5.77;;;;;;;25.65;49.01;99196.03;4947437;29;20206;-85
2022/06/20 07:33:19;;;;;;;9.70;5.30;;;;;;;25.07;50.65;99180.72;4914713;29;20194;-87
2022/06/20 07:35:51;;;;;;;7.20;5.20;;;;;;;25.41;48.99;99108.31;4917857;29;20202;-87
2022/06/20 07:38:25;;;;;;;7.00;5.43;;;;;;;24.99;49.63;99187.78;4919057;29;20197;-86
2022/06/20 07:40:59;;;;;;;8.50;5.30;;;;;;;24.68;49.96;99075.19;4922659;29;20229;-87
2022/06/20 07:43:35;;;;;;;6.47;5.23;;;;;;;25.95;48.04;99178.09;4944729;29;20200;-86
2022/06/20 07:46:09;;;;;;;6.57;5.37;;;;;;;25.62;47.42;99050.03;4973998;28;20201;-86
2022/06/20 07:48:40;;;;;;;6.07;5.23;;;;;;;26.40;46.14;99080.19;5036554;28;20185;-85
2022/06/20 07:51:14;;;;;;;6.03;5.07;;;;;;;25.43;47.63;99048.69;5037126;28;20239;-85
2022/06/20 07:53:46;;;;;;;6.82;4.63;;;;;;;25.86;46.08;99036.50;5032994;28;20287;-86
2022/06/20 07:56:17;;;;;;;7.85;5.40;;;;;;;26.76;46.12;99175.34;5037117;28;20207;-86
2022/06/20 07:58:54;;;;;;;5.90;5.30;;;;;;;26.12;45.60;99020.31;5038168;28;21014;-86
2022/06/20 08:01:32;;;;;;;6.32;5.05;;;;;;;27.02;45.55;99166.91;5038720;28;20191;-86
2022/06/20 08:04:05;;;;;;;6.90;5.28;;;;;;;26.76;45.25;99136.38;5037906;28;20194;-85
2022/06/20 08:06:37;;;;;;;5.50;4.80;;;;;;;26.69;45.03;99088.06;5036982;28;20234;-86
2022/06/20 08:09:12;;;;;;;6.15;4.88;;;;;;;24.58;44.29;98667.28;5035235;28;20218;-86
2022/06/20 08:11:50;;;;;;;6.80;4.78;;;;;;;25.06;44.16;98748.94;5030220;28;20184;-85
2022/06/20 08:14:37;;;;;;;5.82;5.22;;;;;;;27.50;44.11;99158.66;4987783;28;20237;-85
2022/06/20 08:17:08;;;;;;;7.88;5.65;;;;;;;27.12;44.32;99026.28;5014440;28;20204;-85
2022/06/20 08:19:34;;;;;;;7.43;4.60;;;;;;;27.55;43.97;99093.53;5014565;28;20182;-86
2022/06/20 08:22:07;;;;;;;5.28;4.78;;;;;;;27.11;43.84;99073.09;5014288;28;20237;-85
2022/06/20 08:24:37;;;;;;;7.30;5.15;;;;;;;27.87;43.28;99155.84;5015747;28;20182;-85
2022/06/20 08:27:10;;;;;;;7.68;4.88;;;;;;;27.72;43.23;99093.84;5014830;28;20680;-86
2022/06/20 08:29:42;;;;;;;9.82;4.75;;;;;;;28.48;42.55;99162.63;5014774;28;20183;-85
2022/06/20 08:32:20;;;;;;;5.47;4.50;;;;;;;28.56;41.91;99145.00;4997765;28;20355;-86
2022/06/20 08:34:59;;;;;;;5.53;4.97;;;;;;;26.75;42.66;99021.25;5020474;28;20192;-85
2022/06/20 08:37:32;;;;;;;5.25;4.68;;;;;;;27.57;42.79;99098.66;5017083;28;20198;-84
2022/06/20 08:40:16;;;;;;;5.13;4.53;;;;;;;27.68;41.80;99153.81;5010142;28;20225;-86
2022/06/20 08:42:50;;;;;;;5.53;4.30;;;;;;;27.30;41.79;99152.28;5024370;28;20199;-85
2022/06/20 08:45:51;;;;;;;6.95;4.60;;;;;;;28.19;41.12;99131.44;5003598;28;20216;-86
2022/06/20 08:48:47;;;;;;;7.35;3.90;;;;;;;28.34;37.68;99167.41;4999540;28;20204;-85
2022/06/20 08:52:07;;;;;;;4.65;3.65;;;;;;;28.37;36.94;99167.34;4999634;28;20198;-86
2022/06/20 08:54:42;;;;;;;5.35;3.78;;;;;;;28.54;36.30;99166.78;4998175;28;20198;-85
2022/06/20 08:57:12;;;;;;;3.90;3.20;;;;;;;27.94;34.69;99026.34;4997376;28;20744;-85
2022/06/20 08:59:57;;;;;;;5.95;4.80;;;;;;;28.55;33.84;99169.31;4995847;28;20209;-85
2022/06/20 09:03:18;;;;;;;7.63;5.90;;;;;;;29.19;34.70;99159.34;4999379;28;20177;-85
2022/06/20 09:05:55;;;;;;;16.42;13.15;;;;;;;28.18;35.29;99155.78;4955721;29;20248;-85
2022/06/20 09:08:27;;;;;;;13.93;7.40;;;;;;;28.59;34.71;99154.47;4956232;29;20759;-84
2022/06/20 09:11:22;;;;;;;5.05;3.47;;;;;;;28.47;33.76;99142.69;4954114;29;20202;-85
2022/06/20 09:14:40;;;;;;;3.20;2.90;;;;;;;29.49;32.15;99147.00;4940373;28;20243;-86
2022/06/20 09:17:14;;;;;;;10.48;8.45;;;;;;;29.49;31.94;99145.25;4939413;29;20228;-86
2022/06/20 09:19:56;;;;;;;5.95;4.60;;;;;;;29.10;32.43;99136.19;4950154;29;20235;-86
2022/06/20 09:22:33;;;;;;;5.30;4.20;;;;;;;28.89;31.65;99041.38;4938366;29;20742;-85
2022/06/20 09:25:29;;;;;;;3.28;2.75;;;;;;;29.03;31.16;99137.34;4931671;29;20724;-86
2022/06/20 09:28:36;;;;;;;3.05;2.38;;;;;;;29.45;29.41;99099.28;4916735;29;20233;-84
2022/06/20 09:31:10;;;;;;;4.68;2.45;;;;;;;29.51;30.79;99126.91;4934946;29;20216;-86
2022/06/20 09:33:53;;;;;;;3.95;3.10;;;;;;;28.31;32.47;98959.19;4938443;29;20238;-86
2022/06/20 09:36:46;;;;;;;4.82;3.00;;;;;;;29.93;30.50;99124.47;4938681;29;20234;-86
2022/06/20 09:39:30;;;;;;;2.72;2.53;;;;;;;30.24;29.75;99123.16;4917788;29;20285;-85
2022/06/20 09:42:27;;;;;;;4.07;2.97;;;;;;;30.30;30.43;99122.91;4896628;29;20206;-85
2022/06/20 09:44:52;;;;;;;3.25;2.53;;;;;;;30.32;29.98;99120.25;4895240;29;20200;-85
2022/06/20 09:47:24;;;;;;;3.25;2.60;;;;;;;29.48;29.64;98921.75;4895953;29;20563;-87
2022/06/20 09:49:53;;;;;;;3.90;2.28;;;;;;;30.66;27.57;99104.91;4894742;29;20212;-84
2022/06/20 09:52:40;;;;;;;5.13;2.40;;;;;;;31.06;28.17;99106.69;4900212;29;20242;-87
2022/06/20 09:55:19;;;;;;;2.55;2.35;;;;;;;31.14;26.90;99103.72;4965855;28;20224;-85
2022/06/20 09:58:12;;;;;;;4.28;2.20;;;;;;;29.64;27.48;98933.28;4971961;28;20206;-85
2022/06/20 10:01:01;;;;;;;2.40;2.20;;;;;;;29.22;28.68;99096.69;4974344;28;20209;-85
2022/06/20 10:03:41;;;;;;;3.97;2.15;;;;;;;27.80;29.10;98930.53;4983012;28;20192;-86
2022/06/20 10:06:21;;;;;;;2.83;2.10;;;;;;;29.31;28.97;99092.91;4991254;28;20296;-87
2022/06/20 10:09:04;;;;;;;2.38;2.10;;;;;;;28.67;28.37;98937.06;5016061;28;20201;-85
2022/06/20 10:11:32;;;;;;;5.38;2.35;;;;;;;29.92;28.34;99084.44;5015696;28;20252;-85
2022/06/20 10:14:09;;;;;;;5.10;2.53;;;;;;;30.36;27.96;99074.78;5019456;28;20320;-86
2022/06/20 10:16:38;;;;;;;3.10;2.20;;;;;;;30.51;27.93;99068.97;5035321;28;20700;-84
2022/06/20 10:19:21;;;;;;;3.15;2.40;;;;;;;30.20;28.76;99005.81;5034661;28;20186;-85
2022/06/20 10:22:08;;;;;;;5.30;2.63;;;;;;;30.22;28.25;99066.69;5035777;28;20271;-84
2022/06/20 10:25:00;;;;;;;4.28;2.50;;;;;;;30.22;27.48;99066.69;5036779;28;20185;-84
2022/06/20 10:27:39;;;;;;;3.10;2.42;;;;;;;30.16;28.11;99022.56;5034129;28;20194;-83
2022/06/20 10:30:17;;;;;;;3.10;2.80;;;;;;;30.70;27.68;99056.81;5031907;28;20195;-85
2022/06/20 10:32:55;;;;;;;4.57;2.33;;;;;;;30.03;29.45;99058.75;5034083;28;20187;-84
2022/06/20 10:35:39;;;;;;;3.60;2.65;;;;;;;30.38;29.05;99057.34;5034168;28;20803;-83
2022/06/20 10:38:11;;;;;;;4.13;2.63;;;;;;;30.05;29.35;99053.47;5033564;28;20195;-84
2022/06/20 10:40:57;;;;;;;2.65;2.45;;;;;;;29.75;29.61;99056.34;5033145;28;20229;-82
2022/06/20 10:43:23;;;;;;;2.92;2.40;;;;;;;29.49;29.69;99056.53;5024279;28;20210;-83
2022/06/20 10:45:55;;;;;;;5.35;2.55;;;;;;;29.82;29.21;99017.84;5013193;28;20195;-82
2022/06/20 10:48:50;;;;;;;3.00;2.72;;;;;;;30.39;28.79;99038.97;5013141;28;20672;-84
2022/06/20 10:51:40;;;;;;;4.03;2.95;;;;;;;30.39;29.18;99044.22;5013356;28;20200;-82
2022/06/20 10:54:24;;;;;;;2.97;2.67;;;;;;;30.43;27.95;99039.72;5012764;28;20196;-83
2022/06/20 10:57:02;;;;;;;3.47;2.70;;;;;;;30.37;28.10;99039.97;5013032;28;20217;-83
2022/06/20 11:00:02;;;;;;;2.88;2.58;;;;;;;30.25;28.07;99032.59;5013484;28;20213;-83
2022/06/20 11:03:19;;;;;;;4.32;2.85;;;;;;;30.34;29.11;99033.06;5012773;28;20192;-82
2022/06/20 11:05:53;;;;;;;4.72;2.83;;;;;;;29.98;29.35;99015.47;4991324;28;20288;-82
2022/06/20 11:08:52;;;;;;;3.88;2.80;;;;;;;30.37;28.51;99017.31;4990310;28;20655;-82
2022/06/20 11:11:39;;;;;;;4.22;2.90;;;;;;;30.28;27.87;99019.41;4990630;28;20219;-82
2022/06/20 11:14:13;;;;;;;4.05;2.65;;;;;;;30.28;27.89;99016.78;4997781;28;20248;-83
2022/06/20 11:16:56;;;;;;;3.42;2.97;;;;;;;30.29;27.75;99015.91;4994003;28;20221;-83
2022/06/20 11:19:48;;;;;;;3.15;2.65;;;;;;;30.15;28.45;99013.88;5010651;28;20196;-83
2022/06/20 11:22:41;;;;;;;3.10;2.80;;;;;;;30.08;28.66;99015.00;5010324;28;20197;-83
2022/06/20 11:25:31;;;;;;;3.70;2.53;;;;;;;28.98;28.32;98800.38;5010796;28;20204;-85
2022/06/20 11:28:09;;;;;;;3.20;2.88;;;;;;;30.25;28.12;99014.31;5010051;28;20643;-83
2022/06/20 11:30:42;;;;;;;3.97;2.60;;;;;;;29.74;28.53;98952.03;5010817;28;20247;-83
2022/06/20 11:34:00;;;;;;;4.03;2.75;;;;;;;30.21;28.31;99012.75;5011342;28;20195;-83
2022/06/20 11:36:14;;;;;;;3.70;2.80;;;;;;;30.18;29.11;98997.22;5013016;28;20209;-83
2022/06/20 11:38:58;;;;;;;4.97;2.70;;;;;;;30.91;27.94;99000.09;4994738;28;20179;-83
2022/06/20 11:41:48;;;;;;;4.22;3.10;;;;;;;31.83;26.42;98998.41;4992582;28;20311;-83
2022/06/20 11:44:34;;;;;;;4.40;2.88;;;;;;;32.88;25.84;99007.00;4992827;28;20184;-84
2022/06/20 11:47:18;;;;;;;5.03;2.97;;;;;;;33.35;24.78;98911.78;4992213;28;20201;-83
2022/06/20 11:50:40;;;;;;;3.67;2.80;;;;;;;34.31;24.41;98999.88;4992702;28;20245;-83
2022/06/20 11:53:11;;;;;;;5.25;2.90;;;;;;;34.36;24.06;98998.63;4951615;29;20228;-83
2022/06/20 11:55:45;;;;;;;6.88;2.80;;;;;;;32.66;24.83;98632.34;4951852;29;20196;-84
2022/06/20 11:58:52;;;;;;;4.18;2.75;;;;;;;35.49;23.26;98998.63;4978843;28;20299;-84
2022/06/20 12:01:24;;;;;;;2.85;2.47;;;;;;;35.65;22.87;98995.06;4990629;28;20586;-84
2022/06/20 12:03:57;;;;;;;4.50;2.50;;;;;;;36.16;22.41;98989.00;4989609;28;20230;-82
2022/06/20 12:06:30;;;;;;;3.95;2.42;;;;;;;36.35;21.93;98970.13;4989913;28;20187;-84
2022/06/20 12:09:37;;;;;;;2.50;2.30;;;;;;;35.83;22.39;98986.78;4989982;28;20219;-83
2022/06/20 12:12:47;;;;;;;3.40;2.75;;;;;;;36.32;22.44;98978.25;4944580;29;20649;-84
2022/06/20 12:15:32;;;;;;;4.63;2.70;;;;;;;37.27;21.12;98984.78;4923595;29;20237;-83
2022/06/20 12:18:12;;;;;;;3.38;2.42;;;;;;;37.25;20.68;98888.94;4932062;29;20249;-83
2022/06/20 12:23:48;;;;;;;2.65;2.17;;;;;;;38.47;20.36;98934.31;4942043;29;20290;-84
2022/06/20 12:26:20;;;;;;;3.38;2.60;;;;;;;38.89;20.14;98925.69;4964996;28;20628;-86
2022/06/20 12:28:50;;;;;;;5.75;2.50;;;;;;;38.72;20.17;98971.16;4971656;28;20191;-84